Time;durP1;ratioP1;P1;durP2;ratioP2;P2;SDS_P1;SDS_P2;PMS_P1;PMS_P2;Temp;Humidity;BMP_temperature;BMP_pressure;BME280_temperature;BME280_humidity;BME280_pressure;Samples;Min_cycle;Max_cycle;Signal;HPM_P1;HPM_P2
2021/08/12 00:00:13;;;;;;;6.18;3.35;;;14.80;99.90;;;12.78;100.00;101145.09;3588451;39;20740;-81
2021/08/12 00:02:40;;;;;;;3.08;2.30;;;14.70;99.90;;;12.79;100.00;101151.31;3601424;39;20239;-82
2021/08/12 00:05:09;;;;;;;4.10;2.80;;;14.70;99.90;;;12.69;100.00;101161.28;3595005;39;20303;-83
2021/08/12 00:07:36;;;;;;;4.32;3.05;;;14.60;99.90;;;12.62;100.00;101169.06;3591323;39;20506;-86
2021/08/12 00:10:05;;;;;;;8.57;2.93;;;14.60;99.90;;;12.67;100.00;100916.25;3599745;39;20545;-82
2021/08/12 00:12:32;;;;;;;4.65;2.97;;;14.60;99.90;;;12.66;100.00;100901.97;3600093;39;20259;-81
2021/08/12 00:15:00;;;;;;;3.93;2.83;;;15.00;99.90;;;12.45;100.00;100902.34;3596635;39;20673;-83
2021/08/12 00:17:27;;;;;;;4.53;3.80;;;14.60;99.90;;;12.41;100.00;100905.47;3590472;39;20352;-83
2021/08/12 00:19:54;;;;;;;2.70;2.50;;;14.70;99.90;;;12.34;100.00;100891.00;3589669;39;20765;-84
2021/08/12 00:22:21;;;;;;;3.40;2.53;;;14.50;99.90;;;12.33;100.00;100889.31;3589643;39;20278;-83
2021/08/12 00:24:48;;;;;;;2.57;2.27;;;14.50;99.90;;;12.42;100.00;100897.25;3588452;39;20430;-80
2021/08/12 00:27:15;;;;;;;2.83;2.43;;;14.40;99.90;;;12.33;100.00;100889.31;3590921;39;20298;-81
2021/08/12 00:29:42;;;;;;;3.77;3.47;;;14.40;99.90;;;12.27;100.00;100889.91;3587538;39;20262;-80
2021/08/12 00:32:11;;;;;;;3.43;3.07;;;14.30;99.90;;;12.22;100.00;100891.25;3588168;39;20274;-81
2021/08/12 00:34:38;;;;;;;3.10;2.43;;;14.30;99.90;;;12.38;100.00;100898.56;3588854;39;20263;-83
2021/08/12 00:37:06;;;;;;;3.60;2.80;;;14.30;99.90;;;12.23;100.00;100897.44;3601900;39;20548;-80
2021/08/12 00:39:33;;;;;;;4.30;3.40;;;14.20;99.90;;;12.19;100.00;100891.53;3599655;39;20509;-80
2021/08/12 00:42:01;;;;;;;2.50;2.30;;;14.20;99.90;;;12.10;100.00;100900.50;3607825;39;20250;-83
2021/08/12 00:44:28;;;;;;;3.77;3.00;;;14.10;99.90;;;12.09;100.00;100895.31;3624004;39;20482;-81
2021/08/12 00:46:55;;;;;;;4.27;2.63;;;14.00;99.90;;;12.20;100.00;100889.69;3617353;39;20262;-82
2021/08/12 00:49:27;;;;;;;3.50;3.10;;;14.10;99.90;;;12.17;100.00;100882.78;3598009;39;20255;-81
2021/08/12 00:51:55;;;;;;;3.67;3.37;;;15.10;99.90;;;12.13;100.00;100878.72;3597913;39;20273;-83
2021/08/12 00:54:24;;;;;;;2.73;2.50;;;13.90;99.90;;;12.11;100.00;100872.69;3588593;39;20805;-81
2021/08/12 00:56:51;;;;;;;3.97;2.97;;;13.90;99.90;;;12.12;100.00;100871.66;3589249;39;20440;-81
2021/08/12 00:59:19;;;;;;;5.57;3.60;;;13.90;99.90;;;12.10;100.00;100870.16;3597357;39;21123;-82
2021/08/12 01:01:46;;;;;;;9.43;2.80;;;13.90;99.90;;;12.03;100.00;100875.28;3599043;39;20535;-82
2021/08/12 01:04:13;;;;;;;3.17;2.80;;;14.50;99.90;;;12.00;100.00;100872.06;3598494;39;20266;-84
2021/08/12 01:06:57;;;;;;;4.53;2.80;;;13.90;99.90;;;11.88;100.00;100879.47;3594791;39;20271;-83
2021/08/12 01:09:39;;;;;;;4.93;3.20;;;13.80;99.90;;;11.85;100.00;100867.25;3591541;39;20613;-82
2021/08/12 01:12:18;;;;;;;4.23;3.10;;;13.80;99.90;;;11.93;100.00;100871.00;3595974;39;20244;-82
2021/08/12 01:14:58;;;;;;;3.53;2.77;;;13.70;99.90;;;11.88;100.00;100868.75;3588524;39;20284;-82
2021/08/12 01:17:36;;;;;;;3.37;3.07;;;13.70;99.90;;;11.97;100.00;100864.34;3595956;39;20424;-82
2021/08/12 01:20:50;;;;;;;7.00;3.60;;;13.70;99.90;;;11.98;100.00;100858.81;3587499;39;21069;-80
2021/08/12 01:23:23;;;;;;;5.23;3.33;;;13.70;99.90;;;11.92;100.00;100853.22;3598690;39;20277;-83
2021/08/12 01:25:53;;;;;;;4.03;2.93;;;14.30;99.90;;;11.90;100.00;100833.75;3595385;39;20496;-82
2021/08/12 01:28:28;;;;;;;5.87;3.87;;;13.60;99.90;;;11.83;100.00;100831.69;3606458;39;20262;-82
2021/08/12 01:31:16;;;;;;;4.47;3.40;;;14.50;99.90;;;11.65;100.00;100817.41;3608361;39;20344;-82
2021/08/12 01:33:58;;;;;;;4.10;2.87;;;13.60;99.90;;;11.63;100.00;100821.22;3606168;39;20484;-83
2021/08/12 01:36:28;;;;;;;3.37;2.53;;;13.50;99.90;;;11.62;100.00;100823.06;3600995;39;20305;-83
2021/08/12 01:38:57;;;;;;;2.73;2.40;;;13.50;99.90;;;11.77;100.00;100812.69;3598367;39;20936;-83
2021/08/12 01:41:29;;;;;;;4.03;3.20;;;13.40;99.90;;;11.80;100.00;100815.06;3597928;39;20396;-82
2021/08/12 01:43:58;;;;;;;3.40;3.10;;;13.40;99.90;;;11.71;100.00;100810.59;3596539;39;20248;-81
2021/08/12 01:46:28;;;;;;;4.80;3.07;;;14.50;99.90;;;11.60;100.00;100811.66;3587938;39;20267;-82
2021/08/12 01:48:59;;;;;;;3.53;2.67;;;13.50;99.90;;;11.54;100.00;100798.84;3597299;39;20259;-82
2021/08/12 01:51:28;;;;;;;4.80;2.90;;;13.30;99.90;;;11.53;100.00;100798.00;3591599;39;20475;-85
2021/08/12 01:53:59;;;;;;;6.80;3.20;;;13.30;99.90;;;11.43;100.00;100788.34;3589157;39;20810;-81
2021/08/12 01:56:28;;;;;;;3.43;3.13;;;13.30;99.90;;;11.45;100.00;100794.41;3589247;39;20259;-83
2021/08/12 01:58:59;;;;;;;5.07;3.10;;;13.50;99.90;;;11.55;100.00;100795.19;3597730;39;20425;-83
2021/08/12 02:01:28;;;;;;;3.57;2.80;;;13.20;99.90;;;11.47;100.00;100787.06;3587343;39;20480;-81
2021/08/12 02:03:57;;;;;;;5.30;3.77;;;13.20;99.90;;;11.49;100.00;100795.81;3588124;39;20279;-83
2021/08/12 02:06:34;;;;;;;4.33;3.43;;;13.20;99.90;;;11.36;100.00;100795.31;3598227;39;20289;-82
2021/08/12 02:09:01;;;;;;;5.33;3.30;;;12.70;99.90;;;11.30;100.00;100791.41;3589307;39;20762;-82
2021/08/12 02:11:29;;;;;;;4.07;3.07;;;13.10;99.90;;;11.30;100.00;100791.41;3596588;39;20266;-82
2021/08/12 02:13:57;;;;;;;4.93;2.90;;;13.10;99.90;;;11.29;100.00;100797.75;3590044;39;20644;-81
2021/08/12 02:16:24;;;;;;;3.63;3.33;;;13.20;99.90;;;11.31;100.00;100801.13;3588244;39;20266;-85
2021/08/12 02:18:52;;;;;;;4.40;3.27;;;13.20;99.90;;;11.43;100.00;100794.56;3595881;39;20441;-82
2021/08/12 02:21:25;;;;;;;6.07;3.67;;;13.00;99.90;;;11.30;100.00;100795.91;3599554;39;20613;-81
2021/08/12 02:24:03;;;;;;;5.93;3.37;;;13.00;99.90;;;11.15;100.00;100792.91;3602121;39;20552;-83
2021/08/12 02:26:37;;;;;;;3.47;3.17;;;13.10;99.90;;;11.05;100.00;100808.19;3600045;39;20437;-82
2021/08/12 02:29:07;;;;;;;3.23;2.90;;;12.90;99.90;;;11.03;100.00;100823.53;3594796;39;20269;-82
2021/08/12 02:31:36;;;;;;;3.23;2.97;;;12.90;99.90;;;11.02;100.00;100824.53;3587186;39;20270;-82
2021/08/12 02:34:04;;;;;;;4.77;3.87;;;12.80;99.90;;;11.01;100.00;100833.56;3588408;39;20809;-82
2021/08/12 02:36:32;;;;;;;4.77;3.10;;;12.80;99.90;;;11.08;100.00;100832.84;3586782;39;20553;-80
2021/08/12 02:39:02;;;;;;;4.97;3.83;;;12.80;99.90;;;11.15;100.00;100839.28;3596349;39;20552;-81
2021/08/12 02:41:32;;;;;;;7.03;3.63;;;12.70;99.90;;;11.11;100.00;100835.22;3595563;39;20266;-81
2021/08/12 02:44:01;;;;;;;4.67;3.57;;;13.40;99.90;;;11.06;100.00;100840.16;3595859;39;20373;-82
2021/08/12 02:46:31;;;;;;;4.17;3.77;;;13.10;99.90;;;11.00;100.00;100845.28;3598216;39;20523;-82
2021/08/12 02:48:59;;;;;;;4.70;3.47;;;12.70;99.90;;;10.90;100.00;100852.47;3597062;39;21134;-82
2021/08/12 02:51:28;;;;;;;4.70;3.50;;;12.70;99.90;;;10.92;100.00;100863.91;3596962;39;20587;-80
2021/08/12 02:53:57;;;;;;;3.83;3.17;;;12.60;99.90;;;11.02;100.00;100865.53;3589135;39;20672;-80
2021/08/12 02:56:26;;;;;;;4.60;3.90;;;12.60;99.90;;;11.01;100.00;100865.69;3590291;39;20372;-82
2021/08/12 02:58:55;;;;;;;6.80;3.40;;;12.60;99.90;;;11.03;100.00;100858.34;3588560;39;20256;-82
2021/08/12 03:01:25;;;;;;;4.03;3.53;;;13.50;99.90;;;11.07;100.00;100863.28;3586718;39;20274;-82
2021/08/12 03:03:56;;;;;;;4.20;3.23;;;12.60;99.90;;;10.78;100.00;100865.22;3579527;39;20311;-80
2021/08/12 03:06:24;;;;;;;5.07;3.47;;;13.00;99.90;;;10.78;100.00;100879.44;3603648;39;20375;-80
2021/08/12 03:08:55;;;;;;;3.13;2.77;;;12.60;99.90;;;11.01;100.00;100890.63;3577863;39;20267;-81
2021/08/12 03:11:23;;;;;;;4.17;3.77;;;12.50;99.90;;;11.03;100.00;100894.00;3587305;39;20284;-82
2021/08/12 03:13:53;;;;;;;4.70;3.90;;;12.90;99.90;;;10.89;100.00;100905.19;3578601;39;20268;-82
2021/08/12 03:16:22;;;;;;;4.03;2.93;;;12.50;99.90;;;10.78;100.00;100916.06;3587569;39;20239;-80
2021/08/12 03:18:50;;;;;;;4.77;3.37;;;13.40;99.90;;;10.75;100.00;100917.22;3579749;39;20329;-83
2021/08/12 03:21:17;;;;;;;4.70;3.60;;;12.50;99.90;;;10.76;100.00;100920.72;3578883;39;20807;-83
2021/08/12 03:23:44;;;;;;;5.40;4.13;;;13.50;99.90;;;10.66;100.00;100920.75;3589603;39;20507;-80
2021/08/12 03:26:13;;;;;;;5.67;4.23;;;12.40;99.90;;;10.64;100.00;100933.41;3587070;39;20326;-82
2021/08/12 03:28:40;;;;;;;4.23;3.83;;;12.40;99.90;;;10.54;100.00;100939.75;3581198;39;20260;-83
2021/08/12 03:31:09;;;;;;;4.87;3.67;;;12.40;99.90;;;10.48;100.00;100951.91;3588967;39;20588;-83
2021/08/12 03:33:37;;;;;;;6.13;3.67;;;12.30;99.90;;;10.48;100.00;100964.44;3589105;39;20310;-82
2021/08/12 03:36:04;;;;;;;5.10;3.50;;;13.50;99.90;;;10.60;100.00;100979.34;3590195;39;20671;-82
2021/08/12 03:38:34;;;;;;;6.10;4.20;;;12.30;99.90;;;10.52;100.00;100987.22;3578960;39;21148;-81
2021/08/12 03:41:01;;;;;;;6.30;3.30;;;12.30;99.90;;;10.58;100.00;100976.81;3588197;39;20267;-82
2021/08/12 03:43:28;;;;;;;5.83;3.73;;;13.00;99.90;;;10.64;100.00;100968.22;3593462;39;20468;-83
2021/08/12 03:45:55;;;;;;;5.23;3.60;;;12.50;99.90;;;10.76;100.00;100961.72;3596811;39;20486;-81
2021/08/12 03:48:24;;;;;;;5.40;3.67;;;12.20;99.90;;;10.64;100.00;100954.81;3579917;39;20314;-82
2021/08/12 03:50:51;;;;;;;4.67;3.37;;;12.20;99.90;;;10.65;100.00;100955.66;3580347;39;20409;-83
2021/08/12 03:53:19;;;;;;;5.40;3.57;;;12.20;99.90;;;10.55;100.00;100961.03;3590804;39;20248;-82
2021/08/12 03:55:46;;;;;;;6.33;3.97;;;13.30;99.90;;;10.67;100.00;100967.94;3581536;39;20317;-82
2021/08/12 03:58:14;;;;;;;4.23;3.60;;;12.20;99.90;;;10.66;100.00;100965.38;3579750;39;20251;-83
2021/08/12 04:00:41;;;;;;;5.03;4.50;;;12.20;99.90;;;10.62;100.00;100972.03;3589196;39;20478;-81
2021/08/12 04:03:08;;;;;;;3.97;3.63;;;12.20;99.90;;;10.64;100.00;100976.22;3578444;39;20243;-82
2021/08/12 04:05:36;;;;;;;4.63;4.00;;;12.70;99.90;;;10.60;100.00;100982.03;3590326;39;20379;-82
2021/08/12 04:08:04;;;;;;;5.20;3.73;;;12.80;99.90;;;10.62;100.00;100990.78;3590759;39;20358;-82
2021/08/12 04:10:31;;;;;;;5.77;4.07;;;12.20;99.90;;;10.65;100.00;100982.44;3589212;39;20740;-81
2021/08/12 04:12:58;;;;;;;5.60;3.83;;;12.20;99.90;;;10.62;100.00;100974.72;3580854;39;20715;-84
2021/08/12 04:15:25;;;;;;;4.50;3.93;;;13.10;99.90;;;10.65;100.00;100969.91;3581937;39;20275;-81
2021/08/12 04:17:52;;;;;;;4.23;3.77;;;13.00;99.90;;;10.61;100.00;100970.34;3585005;39;20260;-82
2021/08/12 04:20:19;;;;;;;7.53;3.60;;;12.60;99.90;;;10.65;100.00;100964.53;3590109;39;20577;-81
2021/08/12 04:22:48;;;;;;;5.50;3.97;;;12.20;99.90;;;10.63;100.00;100955.00;3590240;39;20279;-81
2021/08/12 04:25:15;;;;;;;8.67;4.30;;;12.20;99.90;;;10.75;100.00;100954.69;3591744;39;20298;-82
2021/08/12 04:27:42;;;;;;;6.00;4.40;;;12.80;99.90;;;10.90;100.00;100946.19;3602179;39;20275;-81
2021/08/12 04:30:12;;;;;;;5.83;4.00;;;13.40;99.90;;;11.12;100.00;100932.50;3589171;39;20263;-82
2021/08/12 04:32:40;;;;;;;8.30;4.90;;;12.30;99.90;;;11.32;100.00;100903.78;3593228;39;20302;-82
2021/08/12 04:35:09;;;;;;;4.17;3.73;;;12.30;99.90;;;11.36;100.00;100891.78;3590184;39;20260;-82
2021/08/12 04:37:42;;;;;;;5.07;4.07;;;12.40;99.90;;;11.58;100.00;100875.28;3594805;39;20244;-82
2021/08/12 04:40:13;;;;;;;5.13;4.20;;;12.40;99.90;;;11.82;100.00;100850.63;3592638;39;20635;-83
2021/08/12 04:42:41;;;;;;;5.00;4.07;;;13.50;99.90;;;11.88;100.00;100817.81;3595307;39;20312;-81
2021/08/12 04:45:09;;;;;;;6.03;4.83;;;12.60;99.90;;;12.01;100.00;100796.81;3580661;39;20748;-83
2021/08/12 04:47:37;;;;;;;5.70;4.23;;;12.70;99.90;;;12.01;100.00;100761.09;3585842;39;21155;-82
2021/08/12 04:50:06;;;;;;;4.70;4.03;;;12.20;99.90;;;12.26;100.00;100751.38;3578245;39;20364;-82
2021/08/12 04:52:33;;;;;;;4.93;3.97;;;12.80;99.90;;;12.45;100.00;100735.94;3580037;39;20549;-81
2021/08/12 04:55:00;;;;;;;5.37;3.77;;;12.90;99.90;;;12.64;100.00;100724.09;3578102;39;20259;-81
2021/08/12 04:57:28;;;;;;;6.03;4.50;;;13.60;99.90;;;12.75;100.00;100706.84;3577723;39;20252;-81
2021/08/12 04:59:55;;;;;;;4.13;3.70;;;13.60;99.90;;;13.01;100.00;100693.34;3596044;39;20266;-81
2021/08/12 05:02:22;;;;;;;4.77;4.03;;;13.30;99.90;;;13.39;100.00;100675.81;3598512;39;20482;-81
2021/08/12 05:04:50;;;;;;;6.57;4.80;;;13.50;99.90;;;13.55;100.00;100663.22;3595668;39;20386;-82
2021/08/12 05:07:17;;;;;;;4.70;4.20;;;13.90;99.90;;;13.41;100.00;100660.38;3593172;39;21326;-82
2021/08/12 05:09:46;;;;;;;4.57;3.83;;;13.80;99.90;;;13.53;100.00;100654.50;3617101;39;20586;-83
2021/08/12 05:12:19;;;;;;;6.03;4.23;;;14.70;99.90;;;13.57;100.00;100663.06;3617172;39;20353;-84
2021/08/12 05:14:48;;;;;;;5.37;4.07;;;14.20;99.90;;;13.75;100.00;100670.94;3597465;39;21108;-83
2021/08/12 05:17:17;;;;;;;5.43;4.50;;;14.40;99.90;;;13.79;100.00;100681.19;3594543;39;21019;-81
2021/08/12 05:19:45;;;;;;;4.53;3.80;;;14.60;99.90;;;14.13;100.00;100685.50;3596604;39;20270;-82
2021/08/12 05:22:14;;;;;;;4.77;4.23;;;14.70;99.90;;;14.21;100.00;100688.22;3599239;39;20399;-82
2021/08/12 05:24:42;;;;;;;4.90;4.10;;;14.90;99.90;;;14.22;100.00;100697.94;3598392;39;20697;-81
2021/08/12 05:27:09;;;;;;;5.22;4.00;;;15.10;99.90;;;14.27;100.00;100701.81;3606080;39;20435;-82
2021/08/12 05:29:36;;;;;;;5.93;4.22;;;15.30;99.90;;;14.15;100.00;100721.16;3587673;39;20267;-81
2021/08/12 05:32:05;;;;;;;5.82;4.22;;;15.40;99.90;;;14.49;100.00;100723.66;3588001;39;20266;-81
2021/08/12 05:34:36;;;;;;;6.90;3.97;;;15.60;99.90;;;14.88;100.00;100729.06;3587488;39;20666;-82
2021/08/12 05:37:03;;;;;;;3.85;3.50;;;15.80;99.90;;;15.09;100.00;100734.69;3588622;39;20255;-80
2021/08/12 05:39:31;;;;;;;5.75;3.97;;;16.00;99.90;;;15.30;100.00;100750.25;3587089;39;20368;-81
2021/08/12 05:41:58;;;;;;;5.18;3.83;;;16.20;99.90;;;15.37;100.00;100762.84;3588432;39;20348;-82
2021/08/12 05:44:26;;;;;;;4.85;3.42;;;16.30;99.90;;;15.42;100.00;100771.25;3586891;39;20647;-83
2021/08/12 05:46:53;;;;;;;5.00;3.83;;;16.60;99.90;;;15.61;100.00;100769.13;3594928;39;20330;-83
2021/08/12 05:49:23;;;;;;;3.78;3.47;;;16.70;99.90;;;15.70;100.00;100781.56;3599019;39;20274;-82
2021/08/12 05:51:50;;;;;;;4.47;3.65;;;17.00;99.90;;;16.03;100.00;100780.28;3596733;39;20250;-83
2021/08/12 05:54:20;;;;;;;4.70;3.33;;;17.10;99.90;;;16.50;100.00;100784.56;3589110;39;20694;-82
2021/08/12 05:56:49;;;;;;;4.13;3.72;;;17.30;99.90;;;16.51;100.00;100799.75;3601479;39;20455;-82
2021/08/12 05:59:16;;;;;;;4.47;3.50;;;17.60;99.90;;;16.15;100.00;100819.31;3610537;39;21039;-82
2021/08/12 06:01:43;;;;;;;4.55;2.90;;;17.70;99.90;;;16.82;100.00;100805.84;3598352;39;20698;-82
2021/08/12 06:04:10;;;;;;;4.13;2.95;;;17.90;99.90;;;16.66;100.00;100830.34;3606516;39;20330;-82
2021/08/12 06:06:39;;;;;;;4.28;3.50;;;18.20;99.90;;;16.79;100.00;100827.84;3597511;39;20254;-82
2021/08/12 06:09:07;;;;;;;3.38;2.95;;;18.50;99.90;;;16.96;100.00;100831.19;3597086;39;20478;-82
2021/08/12 06:11:35;;;;;;;3.05;2.63;;;19.40;99.90;;;17.19;100.00;100822.97;3589537;39;20474;-81
2021/08/12 06:14:03;;;;;;;3.65;2.92;;;18.80;99.90;;;17.61;100.00;100824.97;3600458;39;20368;-84
2021/08/12 06:16:30;;;;;;;4.10;2.58;;;19.00;99.90;;;17.44;100.00;100832.47;3591515;39;20350;-84
2021/08/12 06:18:57;;;;;;;3.90;2.78;;;19.20;99.90;;;17.37;100.00;100863.16;3587112;39;20260;-82
2021/08/12 06:21:24;;;;;;;3.13;2.38;;;19.40;99.90;;;17.57;100.00;100873.22;3588584;39;20267;-84
2021/08/12 06:23:54;;;;;;;5.82;3.17;;;19.60;99.90;;;17.88;100.00;100932.56;3600208;39;20268;-84
2021/08/12 06:26:21;;;;;;;4.78;2.55;;;20.10;99.90;;;17.23;100.00;100941.44;3597040;39;20284;-83
2021/08/12 06:28:50;;;;;;;4.20;2.70;;;19.90;99.90;;;17.88;100.00;100923.59;3594715;39;20260;-83
2021/08/12 06:31:18;;;;;;;3.85;2.65;;;20.00;99.90;;;18.47;100.00;100920.66;3599248;39;21009;-84
2021/08/12 06:33:45;;;;;;;2.55;2.33;;;20.10;99.90;;;18.31;100.00;100936.13;3605649;39;20400;-83
2021/08/12 06:36:13;;;;;;;2.25;2.00;;;20.30;99.90;;;18.67;100.00;100940.69;3608957;39;20508;-82
2021/08/12 06:38:40;;;;;;;2.72;1.90;;;20.50;99.90;;;18.24;100.00;100915.44;3592730;39;21066;-84
2021/08/12 06:41:08;;;;;;;3.63;2.25;;;20.60;99.90;;;18.70;100.00;100901.50;3589260;39;20527;-82
2021/08/12 06:43:44;;;;;;;3.20;2.38;;;21.40;99.90;;;18.84;100.00;100892.44;3615650;39;20337;-82
2021/08/12 06:46:11;;;;;;;2.25;1.92;;;21.00;99.90;;;18.58;100.00;100891.19;3621237;39;20966;-81
2021/08/12 06:48:40;;;;;;;2.28;2.03;;;21.00;99.90;;;19.04;100.00;100881.75;3596322;39;20235;-82
2021/08/12 06:51:07;;;;;;;3.22;2.53;;;22.40;99.90;;;19.11;100.00;100886.16;3607202;39;20326;-82
2021/08/12 06:53:34;;;;;;;3.00;2.08;;;21.60;99.90;;;18.99;100.00;100883.19;3606682;39;20298;-83
2021/08/12 06:56:03;;;;;;;2.47;2.28;;;21.80;99.90;;;19.72;100.00;100878.16;3600919;39;20694;-87
2021/08/12 06:58:32;;;;;;;2.15;1.88;;;22.00;99.90;;;19.93;100.00;100878.00;3592719;39;20363;-82
2021/08/12 07:00:59;;;;;;;3.92;2.08;;;22.30;99.90;;;19.77;100.00;100821.38;3588612;39;20251;-83
2021/08/12 07:03:26;;;;;;;4.45;2.22;;;22.80;99.90;;;19.79;100.00;100805.69;3579580;39;20263;-84
2021/08/12 07:05:53;;;;;;;1.92;1.73;;;22.70;99.90;;;19.80;100.00;100798.38;3589618;39;20666;-83
2021/08/12 07:08:21;;;;;;;4.18;2.13;;;23.80;99.60;;;19.68;100.00;100815.28;3577417;39;20360;-83
2021/08/12 07:10:48;;;;;;;2.78;1.70;;;23.10;98.20;;;20.08;100.00;100815.34;3591920;39;20730;-84
2021/08/12 07:13:15;;;;;;;3.28;2.53;;;23.30;97.80;;;20.33;100.00;100810.97;3579599;39;20338;-80
2021/08/12 07:15:45;;;;;;;4.28;1.73;;;23.50;97.00;;;19.56;100.00;100813.34;3587355;39;20440;-82
2021/08/12 07:18:12;;;;;;;3.78;1.60;;;24.60;96.00;;;19.91;100.00;100842.06;3579169;39;20510;-82
2021/08/12 07:20:40;;;;;;;1.90;1.38;;;24.10;94.60;;;20.83;100.00;100837.75;3579338;39;20266;-83
2021/08/12 07:23:08;;;;;;;2.20;1.38;;;24.00;94.50;;;20.43;100.00;100843.19;3589252;39;20251;-84
2021/08/12 07:25:35;;;;;;;2.47;1.52;;;24.30;93.90;;;20.84;100.00;100842.13;3593839;39;20394;-82
2021/08/12 07:28:03;;;;;;;2.38;2.03;;;24.40;93.50;;;20.57;100.00;100834.00;3597518;39;20445;-84
2021/08/12 07:30:31;;;;;;;1.77;1.52;;;24.60;92.60;;;20.49;100.00;100812.47;3588008;39;20381;-84
2021/08/12 07:33:00;;;;;;;3.50;1.95;;;24.80;92.30;;;20.53;100.00;100796.56;3582869;39;20505;-83
2021/08/12 07:35:27;;;;;;;2.30;1.67;;;24.90;91.90;;;19.91;100.00;100801.31;3587054;39;20277;-83
2021/08/12 07:37:54;;;;;;;3.05;1.73;;;25.00;90.60;;;20.42;100.00;100796.16;3579237;39;20681;-82
2021/08/12 07:40:23;;;;;;;2.20;1.95;;;25.00;90.10;;;19.88;100.00;100811.78;3578224;39;20555;-83
2021/08/12 07:45:05;;;;;;;5.43;1.55;;;25.10;88.10;;;21.64;100.00;100802.72;2557567;30;133225;-82
2021/08/12 07:47:34;;;;;;;2.03;1.00;;;25.40;88.10;;;20.43;100.00;100814.13;2547820;30;132687;-82
2021/08/12 07:50:09;;;;;;;1.83;1.65;;;25.80;84.00;;;20.25;100.00;100815.78;2549650;30;135201;-80
2021/08/12 07:52:41;;;;;;;1.63;1.40;;;25.70;80.40;;;20.83;100.00;100805.09;2550376;30;135559;-83
2021/08/12 07:55:12;;;;;;;2.50;1.77;;;25.80;79.20;;;21.08;100.00;100806.91;2550703;38;133326;-82
2021/08/12 07:57:43;;;;;;;2.70;1.88;;;25.80;80.10;;;21.32;100.00;100816.28;2549754;30;133156;-81
2021/08/12 08:00:17;;;;;;;1.45;1.17;;;26.00;79.50;;;21.07;100.00;100818.84;2550985;30;134081;-81
2021/08/12 08:02:48;;;;;;;1.75;1.35;;;26.20;78.00;;;21.00;100.00;100823.47;2546806;30;135230;-83
2021/08/12 08:05:18;;;;;;;2.15;1.50;;;27.00;77.00;;;21.07;100.00;100818.84;2549423;30;133007;-81
2021/08/12 08:07:49;;;;;;;3.08;1.30;;;27.00;75.20;;;21.73;100.00;100826.78;2548804;30;132953;-83
2021/08/12 08:10:20;;;;;;;2.78;1.55;;;26.80;73.90;;;20.87;100.00;100839.84;2550851;30;134172;-83
2021/08/12 08:12:48;;;;;;;1.58;1.48;;;26.90;70.40;;;21.67;100.00;100832.25;2546606;30;135439;-81
2021/08/12 08:15:22;;;;;;;1.90;1.63;;;27.00;69.90;;;21.22;100.00;100843.13;2550130;30;135695;-80
2021/08/12 08:17:51;;;;;;;1.88;1.48;;;27.30;68.70;;;21.59;100.00;100838.78;2551769;38;132731;-82
2021/08/12 08:20:20;;;;;;;1.45;1.15;;;27.30;66.80;;;22.33;100.00;100846.31;2563955;30;133682;-81
2021/08/12 08:22:50;;;;;;;1.85;1.05;;;27.20;66.50;;;21.94;100.00;100831.03;2561612;30;133031;-82
2021/08/12 08:25:19;;;;;;;1.42;1.30;;;27.20;66.60;;;22.84;100.00;100704.22;2551984;38;132666;-82
2021/08/12 08:27:47;;;;;;;1.95;1.38;;;27.30;67.70;;;21.95;100.00;100900.00;2550159;30;133273;-81
2021/08/12 08:30:19;;;;;;;1.73;1.50;;;27.60;63.80;;;22.33;100.00;100895.38;2547981;30;133256;-82
2021/08/12 08:32:49;;;;;;;1.98;1.10;;;27.70;62.30;;;23.88;100.00;100883.34;2549593;30;135398;-83
2021/08/12 08:35:19;;;;;;;1.42;1.25;;;27.90;62.70;;;23.23;100.00;100895.91;2548927;30;134686;-82
2021/08/12 08:37:48;;;;;;;2.40;1.55;;;28.60;63.00;;;22.53;100.00;100892.50;2549057;30;133113;-81
2021/08/12 08:40:17;;;;;;;1.60;0.93;;;28.40;60.10;;;21.94;100.00;100910.06;2551934;30;133366;-83
2021/08/12 08:42:48;;;;;;;1.65;1.15;;;28.60;58.10;;;21.57;100.00;100908.97;2551686;30;134166;-81
2021/08/12 08:45:22;;;;;;;3.80;1.92;;;28.50;56.30;;;22.02;100.00;100904.38;2550937;30;134572;-83
2021/08/12 08:47:54;;;;;;;2.08;1.00;;;28.30;56.40;;;22.10;100.00;100914.19;2549251;30;133187;-80
2021/08/12 08:50:25;;;;;;;2.13;1.50;;;28.60;57.00;;;21.68;100.00;100915.63;2548981;30;133818;-83
2021/08/12 08:52:55;;;;;;;2.83;1.58;;;28.10;56.90;;;22.25;100.00;100908.47;2551020;30;135633;-82
2021/08/12 08:55:25;;;;;;;1.30;1.08;;;28.60;56.90;;;22.93;100.00;100914.88;2548063;30;133234;-82
2021/08/12 08:57:56;;;;;;;1.33;1.10;;;28.70;57.20;;;22.10;100.00;100911.47;2547243;30;133154;-81
2021/08/12 09:00:28;;;;;;;2.42;1.20;;;28.40;55.60;;;22.86;100.00;100906.75;2546724;30;133625;-80
2021/08/12 09:02:59;;;;;;;0.90;0.90;;;28.30;55.30;;;24.05;100.00;100908.16;2550291;30;136106;-84
2021/08/12 09:05:29;;;;;;;2.95;1.27;;;28.30;55.60;;;24.99;100.00;100912.78;2546595;30;134782;-83
2021/08/12 09:07:58;;;;;;;2.28;1.45;;;28.50;55.80;;;23.94;100.00;100912.50;2555892;30;133165;-82
2021/08/12 09:10:27;;;;;;;1.05;0.93;;;28.80;55.10;;;22.68;100.00;100908.53;2556743;30;134963;-80
2021/08/12 09:12:56;;;;;;;1.95;1.17;;;29.00;53.50;;;23.09;100.00;100899.81;2544363;30;136365;-82
2021/08/12 09:15:25;;;;;;;2.20;1.20;;;29.00;53.30;;;23.17;100.00;100904.97;2545609;30;133574;-82
2021/08/12 09:17:57;;;;;;;1.90;1.15;;;29.10;53.10;;;23.29;100.00;100901.28;2543061;30;133156;-81
2021/08/12 09:20:29;;;;;;;1.42;1.20;;;29.10;53.40;;;24.88;100.00;100915.50;2549621;30;136034;-84
2021/08/12 09:23:07;;;;;;;0.65;0.50;;;29.30;53.70;;;25.72;100.00;100914.16;2544221;30;133942;-83
2021/08/12 09:25:41;;;;;;;1.33;0.82;;;29.50;53.60;;;24.55;100.00;100918.78;2546505;30;136324;-81
2021/08/12 09:28:21;;;;;;;1.10;0.93;;;29.90;52.90;;;23.39;100.00;100919.00;2546414;30;133360;-81
2021/08/12 09:31:07;;;;;;;1.73;0.95;;;30.00;50.70;;;22.56;100.00;100927.53;2541721;30;136310;-81
2021/08/12 09:33:44;;;;;;;1.65;1.10;;;30.20;47.10;;;23.64;100.00;100922.53;2543381;30;135908;-81
2021/08/12 09:36:32;;;;;;;1.45;0.93;;;30.60;48.50;;;24.87;100.00;100924.78;2549407;30;133371;-83
2021/08/12 09:39:16;;;;;;;0.75;0.75;;;29.90;48.80;;;25.45;100.00;100933.03;2547973;30;133073;-82
2021/08/12 09:41:50;;;;;;;1.20;1.10;;;30.00;49.00;;;25.31;100.00;100931.63;2548138;30;133339;-83
2021/08/12 09:44:39;;;;;;;1.92;1.23;;;30.50;49.60;;;25.49;100.00;100922.41;2546105;30;134640;-82
2021/08/12 09:47:12;;;;;;;1.73;1.00;;;30.50;49.50;;;26.06;100.00;100918.72;2549426;30;133636;-84
2021/08/12 09:49:48;;;;;;;1.33;1.02;;;30.70;49.20;;;26.05;100.00;100925.28;2544841;38;133986;-83
2021/08/12 09:52:28;;;;;;;2.58;1.35;;;31.00;48.60;;;24.38;100.00;100923.25;2544594;30;133822;-83
2021/08/12 09:55:14;;;;;;;1.10;0.95;;;31.40;47.50;;;23.77;100.00;100930.56;2549317;30;133334;-81
2021/08/12 09:57:47;;;;;;;1.70;1.08;;;31.30;45.30;;;23.83;100.00;100923.38;2544088;30;133544;-83
2021/08/12 10:00:32;;;;;;;1.30;1.15;;;31.70;45.40;;;24.67;100.00;100925.97;2552013;30;133232;-83
2021/08/12 10:03:02;;;;;;;6.07;1.23;;;31.00;45.30;;;23.49;100.00;100924.81;2547515;30;135768;-81
2021/08/12 10:05:38;;;;;;;0.90;0.70;;;31.50;45.60;;;23.25;100.00;100930.06;2550312;30;133048;-83
2021/08/12 10:08:09;;;;;;;1.23;1.13;;;30.60;45.80;;;23.51;100.00;100929.00;2545350;30;133621;-83
2021/08/12 10:10:38;;;;;;;1.40;1.25;;;30.50;46.20;;;23.96;100.00;100931.41;2546117;30;133637;-81
2021/08/12 10:13:07;;;;;;;0.93;0.93;;;30.40;46.70;;;24.26;100.00;100929.53;2544971;30;133643;-82
2021/08/12 10:15:37;;;;;;;0.90;0.70;;;30.30;46.80;;;23.83;100.00;100923.38;2546356;30;133869;-81
2021/08/12 10:18:07;;;;;;;2.47;1.33;;;30.30;46.60;;;24.57;100.00;100925.72;2547638;30;133915;-81